createdAt,value
2022-09-11T00:00:00.417Z,3.50
2022-09-11T00:02:51.017Z,7.20
2022-09-11T00:05:32.098Z,4.60
2022-09-11T00:08:01.731Z,6.20
2022-09-11T00:10:32.306Z,4.60
2022-09-11T00:13:00.652Z,4.10
2022-09-11T00:15:31.392Z,3.10
2022-09-11T00:18:09.550Z,4.10
2022-09-11T00:21:00.728Z,3.80
2022-09-11T00:23:52.414Z,3.70
2022-09-11T00:26:23.314Z,3.40
2022-09-11T00:28:57.124Z,2.20
2022-09-11T00:31:31.099Z,2.50
2022-09-11T00:34:08.346Z,2.50
2022-09-11T00:36:45.818Z,3.80
2022-09-11T00:39:15.478Z,3.90
2022-09-11T00:41:47.295Z,3.40
2022-09-11T00:44:19.623Z,2.40
2022-09-11T00:47:03.257Z,4.30
2022-09-11T00:49:39.867Z,2.80
2022-09-11T00:52:15.675Z,3.10
2022-09-11T00:55:09.177Z,2.40
2022-09-11T00:57:44.801Z,2.20
2022-09-11T01:00:14.629Z,2.60
2022-09-11T01:02:47.385Z,3.50
2022-09-11T01:05:16.820Z,6.30
2022-09-11T01:07:54.868Z,2.40
2022-09-11T01:11:13.595Z,4.70
2022-09-11T01:14:34.515Z,2.20
2022-09-11T01:17:29.105Z,2.00
2022-09-11T01:20:45.432Z,3.90
2022-09-11T01:23:37.417Z,3.60
2022-09-11T01:26:49.594Z,2.80
2022-09-11T01:29:28.299Z,2.80
2022-09-11T01:32:23.332Z,5.00
2022-09-11T01:35:34.812Z,1.80
2022-09-11T01:38:12.576Z,3.70
2022-09-11T01:40:49.376Z,1.60
2022-09-11T01:43:24.154Z,3.70
2022-09-11T01:45:53.648Z,2.70
2022-09-11T01:48:30.104Z,2.30
2022-09-11T01:51:03.518Z,2.40
2022-09-11T01:53:45.833Z,2.90
2022-09-11T01:56:24.985Z,2.60
2022-09-11T01:59:04.986Z,1.90
2022-09-11T02:01:38.201Z,2.50
2022-09-11T02:07:23.523Z,3.30
2022-09-11T02:10:06.638Z,3.80
2022-09-11T02:12:47.227Z,2.10
2022-09-11T02:15:19.453Z,2.80
2022-09-11T02:18:18.332Z,2.30
2022-09-11T02:20:52.942Z,2.10
2022-09-11T02:23:24.204Z,4.50
2022-09-11T02:25:57.317Z,3.60
2022-09-11T02:28:25.590Z,2.80
2022-09-11T02:30:54.936Z,2.60
2022-09-11T02:33:44.545Z,2.10
2022-09-11T02:36:23.035Z,3.90
2022-09-11T02:39:21.324Z,2.00
2022-09-11T02:42:21.014Z,2.00
2022-09-11T02:45:29.779Z,2.30
2022-09-11T02:48:24.985Z,3.70
2022-09-11T02:51:48.515Z,2.10
2022-09-11T02:55:20.659Z,4.40
2022-09-11T02:58:04.066Z,4.50
2022-09-11T03:00:32.829Z,3.10
2022-09-11T03:03:01.826Z,3.40
2022-09-11T03:05:30.384Z,4.30
2022-09-11T03:07:59.599Z,3.60
2022-09-11T03:10:28.125Z,2.00
2022-09-11T03:13:01.843Z,2.90
2022-09-11T03:15:34.213Z,4.60
2022-09-11T03:18:05.636Z,3.50
2022-09-11T03:20:34.281Z,3.10
2022-09-11T03:23:10.789Z,3.20
2022-09-11T03:25:41.179Z,2.10
2022-09-11T03:28:11.478Z,3.80
2022-09-11T03:31:43.525Z,4.30
2022-09-11T03:34:12.786Z,3.90
2022-09-11T03:36:44.049Z,3.50
2022-09-11T03:39:13.260Z,4.10
2022-09-11T03:42:04.414Z,3.00
2022-09-11T03:44:38.810Z,8.10
2022-09-11T03:47:10.107Z,5.70
2022-09-11T03:50:40.351Z,4.30
2022-09-11T03:53:50.561Z,2.60
2022-09-11T03:56:21.695Z,4.10
2022-09-11T03:58:55.833Z,3.70
2022-09-11T04:03:55.774Z,8.00
2022-09-11T04:06:33.173Z,6.00
2022-09-11T04:09:01.783Z,5.70
2022-09-11T04:11:39.007Z,8.30
2022-09-11T04:14:12.413Z,3.80
2022-09-11T04:16:49.523Z,3.80
2022-09-11T04:19:19.108Z,5.90
2022-09-11T04:21:48.807Z,3.30
2022-09-11T04:24:20.399Z,5.40
2022-09-11T04:26:48.630Z,4.70
2022-09-11T04:29:23.171Z,4.00
2022-09-11T04:31:53.980Z,4.50
2022-09-11T04:34:26.755Z,5.60
2022-09-11T04:37:44.158Z,4.30
2022-09-11T04:40:14.478Z,3.90
2022-09-11T04:45:16.205Z,4.50
2022-09-11T04:47:44.738Z,4.00
2022-09-11T04:50:13.836Z,5.00
2022-09-11T04:52:44.541Z,8.30
2022-09-11T04:55:13.551Z,6.00
2022-09-11T04:57:42.369Z,4.80
2022-09-11T05:00:13.199Z,4.20
2022-09-11T05:02:42.030Z,4.30
2022-09-11T05:05:11.140Z,4.30
2022-09-11T05:07:39.663Z,4.00
2022-09-11T05:10:14.100Z,3.70
2022-09-11T05:12:43.168Z,5.20
2022-09-11T05:15:14.129Z,5.10
2022-09-11T05:17:45.768Z,5.70
2022-09-11T05:20:17.553Z,3.70
2022-09-11T05:22:48.158Z,3.60
2022-09-11T05:25:19.009Z,5.40
2022-09-11T05:27:58.740Z,3.80
2022-09-11T05:30:30.615Z,3.40
2022-09-11T05:33:21.430Z,4.40
2022-09-11T05:36:33.751Z,4.30
2022-09-11T05:39:05.661Z,5.80
2022-09-11T05:41:35.576Z,4.40
2022-09-11T05:44:11.162Z,4.60
2022-09-11T05:46:42.927Z,4.70
2022-09-11T05:49:11.722Z,5.40
2022-09-11T05:51:43.046Z,4.30
2022-09-11T05:54:15.530Z,4.90
2022-09-11T05:56:49.790Z,3.60
2022-09-11T05:59:27.312Z,5.80
2022-09-11T06:01:56.968Z,4.60
2022-09-11T06:04:43.117Z,4.40
2022-09-11T06:07:12.213Z,5.00
2022-09-11T06:09:45.732Z,4.10
2022-09-11T06:12:13.974Z,4.50
2022-09-11T06:14:44.568Z,4.50
2022-09-11T06:17:13.230Z,4.00
2022-09-11T06:19:42.352Z,4.20
2022-09-11T06:22:11.146Z,4.00
2022-09-11T06:24:52.784Z,8.50
2022-09-11T06:27:29.592Z,6.20
2022-09-11T06:30:06.282Z,4.80
2022-09-11T06:32:37.303Z,3.80
2022-09-11T06:35:10.210Z,4.40
2022-09-11T06:37:40.268Z,3.00
2022-09-11T06:40:16.637Z,5.60
2022-09-11T06:42:54.462Z,4.90
2022-09-11T06:45:27.043Z,4.00
2022-09-11T06:47:58.315Z,4.70
2022-09-11T06:50:32.931Z,4.10
2022-09-11T06:53:08.820Z,7.80
2022-09-11T06:55:40.696Z,5.30
2022-09-11T06:58:09.730Z,5.40
2022-09-11T07:00:38.497Z,5.50
2022-09-11T07:03:13.857Z,6.20
2022-09-11T07:05:48.162Z,6.30
2022-09-11T07:08:16.385Z,5.00
2022-09-11T07:10:54.831Z,6.10
2022-09-11T07:13:26.189Z,6.80
2022-09-11T07:16:03.022Z,6.90
2022-09-11T07:18:52.344Z,7.50
2022-09-11T07:21:31.803Z,7.40
2022-09-11T07:24:02.658Z,7.80
2022-09-11T07:26:39.440Z,7.50
2022-09-11T07:29:15.378Z,7.00
2022-09-11T07:31:44.453Z,7.40
2022-09-11T07:34:13.421Z,7.30
2022-09-11T07:36:41.897Z,7.70
2022-09-11T07:39:10.947Z,7.80
2022-09-11T07:41:47.589Z,9.10
2022-09-11T07:44:18.735Z,8.00
2022-09-11T07:46:48.735Z,8.90
2022-09-11T07:49:28.405Z,7.50
2022-09-11T07:51:59.653Z,8.40
2022-09-11T07:54:35.746Z,7.30
2022-09-11T07:57:05.021Z,6.60
2022-09-11T07:59:33.997Z,6.40
2022-09-11T08:02:04.366Z,6.50
2022-09-11T08:04:35.751Z,6.80
2022-09-11T08:07:03.975Z,6.60
2022-09-11T08:09:37.119Z,7.30
2022-09-11T08:12:11.372Z,6.70
2022-09-11T08:14:41.323Z,6.30
2022-09-11T08:17:15.061Z,6.20
2022-09-11T08:19:44.771Z,6.50
2022-09-11T08:22:55.933Z,6.70
2022-09-11T08:25:25.212Z,5.90
2022-09-11T08:27:53.327Z,6.60
2022-09-11T08:30:23.139Z,6.10
2022-09-11T08:32:51.434Z,7.10
2022-09-11T08:35:20.549Z,10.70
2022-09-11T08:37:54.855Z,8.30
2022-09-11T08:40:24.013Z,8.10
2022-09-11T08:42:57.300Z,10.30
2022-09-11T08:45:31.697Z,8.50
2022-09-11T08:48:01.641Z,7.40
2022-09-11T08:50:40.641Z,8.30
2022-09-11T08:53:15.563Z,8.60
2022-09-11T08:55:56.581Z,9.60
2022-09-11T08:58:41.652Z,8.30
2022-09-11T09:01:48.457Z,7.10
2022-09-11T09:04:42.892Z,8.50
2022-09-11T09:07:51.660Z,7.80
2022-09-11T09:10:46.679Z,8.50
2022-09-11T09:13:40.020Z,7.90
2022-09-11T09:16:28.922Z,7.90
2022-09-11T09:19:10.320Z,7.50
2022-09-11T09:22:07.582Z,8.50
2022-09-11T09:24:46.785Z,8.40
2022-09-11T09:27:38.073Z,8.40
2022-09-11T09:30:35.923Z,7.40
2022-09-11T09:33:29.827Z,7.60
2022-09-11T09:36:24.610Z,7.50
2022-09-11T09:38:56.653Z,13.10
2022-09-11T09:41:49.879Z,7.60
2022-09-11T09:45:06.266Z,8.50
2022-09-11T09:47:41.464Z,6.50
2022-09-11T09:50:22.336Z,8.00
2022-09-11T09:52:51.483Z,6.30
2022-09-11T09:55:21.426Z,6.80
2022-09-11T09:57:50.718Z,5.80
2022-09-11T10:00:22.710Z,5.70
2022-09-11T10:02:56.715Z,6.50
2022-09-11T10:05:33.445Z,6.10
2022-09-11T10:08:06.775Z,4.90
2022-09-11T10:10:40.862Z,5.70
2022-09-11T10:13:25.139Z,5.50
2022-09-11T10:15:59.863Z,5.10
2022-09-11T10:18:41.882Z,5.80
2022-09-11T10:21:21.530Z,4.70
2022-09-11T10:23:55.373Z,5.50
2022-09-11T10:26:26.583Z,4.50
2022-09-11T10:29:01.457Z,4.50
2022-09-11T10:31:30.895Z,4.50
2022-09-11T10:34:00.737Z,5.00
2022-09-11T10:36:30.158Z,4.80
2022-09-11T10:39:01.359Z,5.80
2022-09-11T10:41:35.422Z,4.10
2022-09-11T10:44:13.207Z,4.90
2022-09-11T10:46:45.385Z,7.40
2022-09-11T10:49:22.331Z,3.90
2022-09-11T10:52:32.648Z,4.10
2022-09-11T10:55:54.543Z,3.60
2022-09-11T10:58:31.731Z,4.70
2022-09-11T11:01:00.319Z,4.50
2022-09-11T11:03:29.803Z,4.30
2022-09-11T11:06:29.633Z,3.90
2022-09-11T11:09:17.149Z,4.00
2022-09-11T11:12:20.531Z,3.10
2022-09-11T11:15:07.231Z,2.90
2022-09-11T11:17:54.535Z,4.00
2022-09-11T11:20:26.910Z,3.90
2022-09-11T11:23:32.808Z,3.80
2022-09-11T11:26:43.636Z,4.40
2022-09-11T11:29:40.172Z,8.10
2022-09-11T11:32:29.074Z,3.40
2022-09-11T11:35:23.207Z,3.30
2022-09-11T11:38:16.614Z,3.10
2022-09-11T11:40:54.309Z,3.30
2022-09-11T11:43:27.656Z,3.80
2022-09-11T11:48:49.087Z,3.20
2022-09-11T11:52:00.439Z,3.60
2022-09-11T11:55:06.469Z,3.70
2022-09-11T11:57:45.676Z,4.00
2022-09-11T12:00:16.520Z,4.20
2022-09-11T12:03:01.862Z,4.50
2022-09-11T12:05:34.863Z,6.10
2022-09-11T12:08:19.125Z,5.90
2022-09-11T12:10:58.433Z,7.00
2022-09-11T12:13:41.296Z,6.60
2022-09-11T12:16:25.436Z,5.90
2022-09-11T12:19:12.754Z,5.90
2022-09-11T12:22:04.909Z,6.10
2022-09-11T12:24:52.926Z,6.50
2022-09-11T12:27:37.463Z,6.00
2022-09-11T12:30:24.041Z,6.10
2022-09-11T12:33:02.463Z,5.20
2022-09-11T12:35:39.253Z,4.60
2022-09-11T12:38:22.965Z,6.00
2022-09-11T12:41:04.901Z,6.40
2022-09-11T12:43:37.520Z,6.40
2022-09-11T12:46:14.124Z,6.20
2022-09-11T12:48:56.247Z,5.30
2022-09-11T12:51:42.752Z,6.30
2022-09-11T12:54:24.701Z,6.90
2022-09-11T12:57:04.640Z,7.00
2022-09-11T12:59:41.218Z,6.70
2022-09-11T13:02:43.456Z,6.90
2022-09-11T13:05:27.575Z,8.70
2022-09-11T13:10:35.349Z,10.30
2022-09-11T13:13:44.521Z,11.80
2022-09-11T13:16:37.227Z,13.40
2022-09-11T13:19:13.802Z,12.70
2022-09-11T13:21:43.285Z,14.00
2022-09-11T13:24:35.821Z,15.60
2022-09-11T13:27:16.383Z,19.50
2022-09-11T13:29:48.669Z,15.30
2022-09-11T13:32:18.578Z,16.00
2022-09-11T13:34:54.112Z,16.40
2022-09-11T13:37:57.950Z,17.10
2022-09-11T13:40:55.648Z,17.70
2022-09-11T13:44:35.764Z,19.40
2022-09-11T13:47:15.087Z,21.20
2022-09-11T13:49:46.599Z,19.20
2022-09-11T13:52:15.422Z,20.70
2022-09-11T13:54:52.754Z,21.00
2022-09-11T13:57:30.965Z,18.30
2022-09-11T14:00:01.975Z,19.00
2022-09-11T14:02:53.512Z,17.70
2022-09-11T14:05:27.040Z,16.80
2022-09-11T14:08:43.487Z,16.30
2022-09-11T14:11:21.401Z,16.10
2022-09-11T14:13:56.745Z,16.20
2022-09-11T14:16:34.014Z,16.30
2022-09-11T14:19:09.534Z,14.50
2022-09-11T14:21:45.566Z,13.90
2022-09-11T14:24:35.418Z,13.10
2022-09-11T14:27:35.690Z,12.90
2022-09-11T14:30:36.321Z,12.50
2022-09-11T14:33:27.352Z,13.70
2022-09-11T14:36:07.922Z,11.70
2022-09-11T14:38:38.484Z,11.40
2022-09-11T14:41:07.941Z,10.70
2022-09-11T14:43:39.092Z,12.70
2022-09-11T14:46:08.679Z,10.40
2022-09-11T14:48:36.978Z,9.50
2022-09-11T14:51:12.751Z,9.40
2022-09-11T14:53:45.621Z,10.10
2022-09-11T14:56:14.916Z,9.00
2022-09-11T14:58:44.694Z,8.70
2022-09-11T15:01:38.292Z,10.90
2022-09-11T15:04:20.983Z,8.80
2022-09-11T15:06:52.101Z,8.40
2022-09-11T15:09:24.975Z,8.80
2022-09-11T15:11:53.468Z,8.50
2022-09-11T15:14:38.627Z,12.40
2022-09-11T15:17:16.102Z,7.80
2022-09-11T15:19:50.097Z,8.40
2022-09-11T15:22:20.316Z,9.50
2022-09-11T15:24:48.920Z,10.50
2022-09-11T15:27:19.242Z,8.00
2022-09-11T15:29:47.524Z,8.80
2022-09-11T15:32:15.474Z,8.00
2022-09-11T15:34:45.498Z,9.20
2022-09-11T15:37:15.252Z,9.10
2022-09-11T15:39:45.869Z,9.10
2022-09-11T15:42:14.701Z,7.90
2022-09-11T15:44:42.790Z,9.90
2022-09-11T15:47:11.561Z,9.60
2022-09-11T15:49:42.050Z,8.80
2022-09-11T15:52:10.620Z,8.40
2022-09-11T15:54:38.703Z,10.10
2022-09-11T15:57:08.011Z,7.70
2022-09-11T15:59:40.314Z,7.90
2022-09-11T16:02:09.511Z,9.80
2022-09-11T16:04:37.969Z,9.20
2022-09-11T16:07:07.202Z,9.30
2022-09-11T16:09:36.109Z,8.00
2022-09-11T16:12:08.423Z,9.90
2022-09-11T16:14:38.568Z,7.30
2022-09-11T16:17:08.009Z,10.20
2022-09-11T16:19:38.894Z,13.40
2022-09-11T16:22:08.677Z,8.70
2022-09-11T16:24:37.911Z,11.10
2022-09-11T16:27:11.297Z,10.50
2022-09-11T16:30:20.339Z,10.10
2022-09-11T16:32:38.203Z,8.10
2022-09-11T16:35:14.312Z,9.90
2022-09-11T16:37:44.601Z,8.70
2022-09-11T16:40:16.590Z,11.80
2022-09-11T16:42:47.908Z,12.10
2022-09-11T16:45:16.432Z,9.00
2022-09-11T16:47:44.287Z,12.30
2022-09-11T16:50:13.398Z,10.00
2022-09-11T16:52:43.802Z,13.60
2022-09-11T16:55:13.239Z,11.70
2022-09-11T16:57:44.513Z,9.30
2022-09-11T17:00:14.742Z,11.50
2022-09-11T17:02:44.049Z,11.40
2022-09-11T17:05:12.703Z,10.40
2022-09-11T17:07:42.085Z,12.00
2022-09-11T17:10:11.595Z,12.40
2022-09-11T17:12:40.551Z,11.20
2022-09-11T17:15:13.454Z,11.80
2022-09-11T17:17:43.808Z,11.90
2022-09-11T17:20:12.768Z,15.70
2022-09-11T17:22:40.569Z,11.50
2022-09-11T17:25:09.831Z,14.60
2022-09-11T17:27:37.964Z,13.50
2022-09-11T17:30:11.487Z,15.10
2022-09-11T17:32:40.352Z,15.10
2022-09-11T17:35:08.388Z,14.30
2022-09-11T17:37:36.897Z,15.80
2022-09-11T17:40:07.583Z,18.20
2022-09-11T17:42:35.814Z,16.00
2022-09-11T17:45:05.838Z,14.10
2022-09-11T17:47:34.596Z,13.60
2022-09-11T17:50:04.026Z,17.60
2022-09-11T17:52:37.829Z,13.70
2022-09-11T17:55:08.020Z,14.20
2022-09-11T17:57:36.585Z,13.40
2022-09-11T18:00:06.501Z,13.80
2022-09-11T18:02:40.723Z,15.00
2022-09-11T18:05:10.109Z,12.70
2022-09-11T18:07:39.684Z,14.20
2022-09-11T18:10:09.906Z,13.10
2022-09-11T18:12:40.227Z,15.90
2022-09-11T18:15:08.877Z,14.20
2022-09-11T18:17:38.464Z,13.60
2022-09-11T18:20:08.120Z,15.80
2022-09-11T18:22:39.726Z,15.10
2022-09-11T18:25:10.033Z,16.40
2022-09-11T18:27:39.861Z,14.60
2022-09-11T18:30:09.799Z,15.30
2022-09-11T18:32:40.711Z,15.00
2022-09-11T18:35:10.380Z,14.20
2022-09-11T18:37:39.437Z,14.70
2022-09-11T18:40:09.582Z,13.60
2022-09-11T18:42:40.978Z,13.40
2022-09-11T18:45:10.313Z,13.60
2022-09-11T18:47:40.790Z,12.90
2022-09-11T18:50:09.942Z,14.90
2022-09-11T18:52:38.270Z,13.30
2022-09-11T18:55:06.488Z,12.30
2022-09-11T18:57:40.140Z,12.90
2022-09-11T19:00:14.204Z,12.90
2022-09-11T19:02:43.170Z,13.50
2022-09-11T19:05:11.274Z,12.90
2022-09-11T19:07:40.373Z,14.00
2022-09-11T19:10:12.584Z,13.10
2022-09-11T19:12:42.741Z,13.90
2022-09-11T19:15:11.167Z,12.70
2022-09-11T19:17:39.027Z,12.40
2022-09-11T19:20:10.260Z,15.30
2022-09-11T19:22:39.353Z,12.00
2022-09-11T19:25:10.172Z,12.50
2022-09-11T19:27:39.888Z,11.60
2022-09-11T19:30:08.899Z,15.60
2022-09-11T19:32:41.414Z,12.90
2022-09-11T19:35:10.802Z,13.80
2022-09-11T19:37:39.653Z,16.60
2022-09-11T19:40:09.447Z,13.40
2022-09-11T19:42:38.350Z,16.20
2022-09-11T19:45:09.448Z,14.00
2022-09-11T19:47:37.721Z,14.20
2022-09-11T19:50:08.700Z,13.90
2022-09-11T19:52:36.478Z,12.60
2022-09-11T19:55:05.349Z,11.60
2022-09-11T19:57:33.841Z,13.80
2022-09-11T20:00:03.544Z,11.50
2022-09-11T20:02:35.029Z,11.40
2022-09-11T20:05:44.465Z,10.50
2022-09-11T20:08:16.070Z,12.60
2022-09-11T20:10:49.129Z,11.00
2022-09-11T20:13:17.557Z,12.00
2022-09-11T20:15:46.266Z,12.10
2022-09-11T20:18:15.748Z,11.00
2022-09-11T20:20:48.865Z,10.60
2022-09-11T20:23:19.721Z,9.90
2022-09-11T20:25:49.547Z,10.00
2022-09-11T20:28:19.178Z,11.50
2022-09-11T20:30:48.513Z,11.30
2022-09-11T20:33:18.457Z,12.70
2022-09-11T20:36:11.486Z,11.60
2022-09-11T20:38:39.351Z,9.90
2022-09-11T20:41:11.603Z,13.60
2022-09-11T20:43:43.618Z,11.80
2022-09-11T20:46:12.432Z,10.80
2022-09-11T20:48:40.826Z,10.80
2022-09-11T20:51:12.719Z,11.40
2022-09-11T20:53:45.758Z,10.30
2022-09-11T20:56:16.667Z,13.00
2022-09-11T20:58:44.514Z,10.00
2022-09-11T21:01:16.458Z,11.30
2022-09-11T21:03:57.583Z,9.20
2022-09-11T21:06:29.565Z,9.20
2022-09-11T21:09:07.411Z,8.30
2022-09-11T21:11:37.332Z,9.50
2022-09-11T21:14:07.727Z,10.50
2022-09-11T21:16:36.887Z,9.80
2022-09-11T21:19:08.243Z,8.80
2022-09-11T21:21:40.496Z,7.80
2022-09-11T21:24:12.681Z,9.50
2022-09-11T21:26:41.043Z,8.20
2022-09-11T21:29:13.234Z,10.30
2022-09-11T21:31:43.522Z,10.50
2022-09-11T21:34:13.870Z,9.50
2022-09-11T21:36:44.614Z,8.70
2022-09-11T21:39:13.201Z,9.80
2022-09-11T21:41:41.964Z,7.80
2022-09-11T21:44:10.819Z,7.60
2022-09-11T21:46:39.720Z,7.50
2022-09-11T21:49:12.787Z,7.50
2022-09-11T21:51:43.659Z,7.20
2022-09-11T21:54:13.363Z,7.00
2022-09-11T21:56:42.089Z,7.50
2022-09-11T21:59:10.528Z,7.30
2022-09-11T22:01:39.203Z,7.10
2022-09-11T22:04:07.564Z,10.40
2022-09-11T22:06:41.970Z,7.40
2022-09-11T22:09:11.647Z,8.40
2022-09-11T22:11:40.054Z,7.40
2022-09-11T22:14:08.251Z,9.10
2022-09-11T22:16:37.417Z,7.30
2022-09-11T22:19:08.422Z,7.40
2022-09-11T22:21:40.039Z,7.80
2022-09-11T22:24:08.161Z,7.60
2022-09-11T22:26:36.579Z,7.90
2022-09-11T22:29:04.901Z,7.20
2022-09-11T22:31:34.937Z,7.20
2022-09-11T22:34:04.704Z,7.50
2022-09-11T22:36:32.654Z,7.60
2022-09-11T22:39:04.926Z,8.00
2022-09-11T22:41:33.809Z,7.20
2022-09-11T22:44:02.590Z,8.20
2022-09-11T22:46:30.383Z,8.10
2022-09-11T22:48:58.309Z,7.70
2022-09-11T22:51:27.997Z,7.50
2022-09-11T22:53:56.828Z,9.50
2022-09-11T22:56:24.634Z,7.70
2022-09-11T22:58:53.366Z,6.80
2022-09-11T23:01:22.785Z,7.30
2022-09-11T23:03:54.694Z,6.80
2022-09-11T23:06:42.206Z,8.20
2022-09-11T23:09:13.300Z,6.70
2022-09-11T23:11:45.539Z,7.00
2022-09-11T23:14:14.909Z,10.10
2022-09-11T23:16:44.518Z,6.90
2022-09-11T23:19:17.527Z,7.80
2022-09-11T23:21:46.569Z,9.10
2022-09-11T23:24:15.473Z,7.30
2022-09-11T23:26:45.493Z,10.60
2022-09-11T23:29:17.076Z,6.90
2022-09-11T23:34:17.596Z,6.70
2022-09-11T23:36:46.056Z,7.60
2022-09-11T23:39:15.218Z,8.30
2022-09-11T23:41:43.087Z,7.10
2022-09-11T23:44:12.663Z,7.10
2022-09-11T23:46:41.013Z,7.60
2022-09-11T23:49:16.150Z,8.10
2022-09-11T23:51:44.194Z,8.30
2022-09-11T23:54:12.086Z,9.00
2022-09-11T23:56:39.980Z,8.60
2022-09-11T23:59:11.144Z,7.40
